sensor_id;sensor_type;location;lat;lon;timestamp;P1;durP1;ratioP1;P2;durP2;ratioP2
20531;SDS011;10424;52.102;8.084;2023-06-04T00:02:07;5.15;;;1.80;;
20531;SDS011;10424;52.102;8.084;2023-06-04T00:04:35;5.85;;;1.98;;
20531;SDS011;10424;52.102;8.084;2023-06-04T00:07:02;2.90;;;1.70;;
20531;SDS011;10424;52.102;8.084;2023-06-04T00:09:29;3.90;;;1.60;;
20531;SDS011;10424;52.102;8.084;2023-06-04T00:11:57;5.88;;;1.88;;
20531;SDS011;10424;52.102;8.084;2023-06-04T00:14:25;6.13;;;1.77;;
20531;SDS011;10424;52.102;8.084;2023-06-04T00:16:53;3.22;;;1.75;;
20531;SDS011;10424;52.102;8.084;2023-06-04T00:19:20;2.78;;;1.80;;
20531;SDS011;10424;52.102;8.084;2023-06-04T00:21:48;2.95;;;1.70;;
20531;SDS011;10424;52.102;8.084;2023-06-04T00:24:15;2.95;;;1.70;;
20531;SDS011;10424;52.102;8.084;2023-06-04T00:26:42;2.92;;;1.80;;
20531;SDS011;10424;52.102;8.084;2023-06-04T00:29:10;2.50;;;1.70;;
20531;SDS011;10424;52.102;8.084;2023-06-04T00:31:38;3.72;;;1.80;;
20531;SDS011;10424;52.102;8.084;2023-06-04T00:34:06;3.47;;;1.83;;
20531;SDS011;10424;52.102;8.084;2023-06-04T00:36:33;3.33;;;1.60;;
20531;SDS011;10424;52.102;8.084;2023-06-04T00:39:00;2.78;;;1.70;;
20531;SDS011;10424;52.102;8.084;2023-06-04T00:41:27;4.05;;;2.00;;
20531;SDS011;10424;52.102;8.084;2023-06-04T00:43:55;5.55;;;1.92;;
20531;SDS011;10424;52.102;8.084;2023-06-04T00:46:23;5.57;;;2.00;;
20531;SDS011;10424;52.102;8.084;2023-06-04T00:48:53;2.67;;;1.88;;
20531;SDS011;10424;52.102;8.084;2023-06-04T00:51:21;3.63;;;1.70;;
20531;SDS011;10424;52.102;8.084;2023-06-04T00:53:49;3.20;;;1.80;;
20531;SDS011;10424;52.102;8.084;2023-06-04T00:56:16;7.18;;;1.70;;
20531;SDS011;10424;52.102;8.084;2023-06-04T00:58:43;3.58;;;1.63;;
20531;SDS011;10424;52.102;8.084;2023-06-04T01:01:13;4.70;;;1.80;;
20531;SDS011;10424;52.102;8.084;2023-06-04T01:03:42;3.35;;;1.80;;
20531;SDS011;10424;52.102;8.084;2023-06-04T01:06:13;4.00;;;1.80;;
20531;SDS011;10424;52.102;8.084;2023-06-04T01:08:46;2.42;;;1.70;;
20531;SDS011;10424;52.102;8.084;2023-06-04T01:11:14;3.45;;;1.77;;
20531;SDS011;10424;52.102;8.084;2023-06-04T01:13:41;5.55;;;1.77;;
20531;SDS011;10424;52.102;8.084;2023-06-04T01:16:08;3.13;;;1.73;;
20531;SDS011;10424;52.102;8.084;2023-06-04T01:18:37;2.45;;;1.75;;
20531;SDS011;10424;52.102;8.084;2023-06-04T01:21:07;4.15;;;1.67;;
20531;SDS011;10424;52.102;8.084;2023-06-04T01:23:40;4.53;;;1.60;;
20531;SDS011;10424;52.102;8.084;2023-06-04T01:26:12;6.45;;;1.88;;
20531;SDS011;10424;52.102;8.084;2023-06-04T01:28:39;4.38;;;2.10;;
20531;SDS011;10424;52.102;8.084;2023-06-04T01:31:07;3.83;;;2.00;;
20531;SDS011;10424;52.102;8.084;2023-06-04T01:33:35;2.28;;;1.70;;
20531;SDS011;10424;52.102;8.084;2023-06-04T01:36:03;4.40;;;1.90;;
20531;SDS011;10424;52.102;8.084;2023-06-04T01:38:31;2.20;;;1.60;;
20531;SDS011;10424;52.102;8.084;2023-06-04T01:41:00;5.13;;;1.90;;
20531;SDS011;10424;52.102;8.084;2023-06-04T01:43:27;3.63;;;1.90;;
20531;SDS011;10424;52.102;8.084;2023-06-04T01:45:55;3.45;;;1.60;;
20531;SDS011;10424;52.102;8.084;2023-06-04T01:48:23;4.00;;;1.70;;
20531;SDS011;10424;52.102;8.084;2023-06-04T01:50:50;4.38;;;1.60;;
20531;SDS011;10424;52.102;8.084;2023-06-04T01:53:17;3.00;;;1.60;;
20531;SDS011;10424;52.102;8.084;2023-06-04T01:55:44;2.53;;;1.60;;
20531;SDS011;10424;52.102;8.084;2023-06-04T01:58:15;4.38;;;1.77;;
20531;SDS011;10424;52.102;8.084;2023-06-04T02:00:47;2.22;;;1.80;;
20531;SDS011;10424;52.102;8.084;2023-06-04T02:03:18;4.57;;;1.67;;
20531;SDS011;10424;52.102;8.084;2023-06-04T02:05:45;3.97;;;1.60;;
20531;SDS011;10424;52.102;8.084;2023-06-04T02:08:14;4.90;;;1.98;;
20531;SDS011;10424;52.102;8.084;2023-06-04T02:10:44;2.58;;;1.70;;
20531;SDS011;10424;52.102;8.084;2023-06-04T02:13:12;5.28;;;1.80;;
20531;SDS011;10424;52.102;8.084;2023-06-04T02:15:41;2.58;;;1.70;;
20531;SDS011;10424;52.102;8.084;2023-06-04T02:18:12;2.10;;;1.60;;
20531;SDS011;10424;52.102;8.084;2023-06-04T02:20:41;4.65;;;1.70;;
20531;SDS011;10424;52.102;8.084;2023-06-04T02:23:08;5.63;;;1.88;;
20531;SDS011;10424;52.102;8.084;2023-06-04T02:25:35;2.72;;;1.70;;
20531;SDS011;10424;52.102;8.084;2023-06-04T02:28:02;4.10;;;1.73;;
20531;SDS011;10424;52.102;8.084;2023-06-04T02:30:30;3.55;;;1.70;;
20531;SDS011;10424;52.102;8.084;2023-06-04T02:32:58;2.70;;;1.60;;
20531;SDS011;10424;52.102;8.084;2023-06-04T02:35:27;4.90;;;1.63;;
20531;SDS011;10424;52.102;8.084;2023-06-04T02:37:54;3.63;;;1.77;;
20531;SDS011;10424;52.102;8.084;2023-06-04T02:40:22;5.75;;;1.92;;
20531;SDS011;10424;52.102;8.084;2023-06-04T02:42:50;2.83;;;1.65;;
20531;SDS011;10424;52.102;8.084;2023-06-04T02:45:17;2.45;;;1.58;;
20531;SDS011;10424;52.102;8.084;2023-06-04T02:47:44;4.05;;;1.75;;
20531;SDS011;10424;52.102;8.084;2023-06-04T02:50:13;5.95;;;1.92;;
20531;SDS011;10424;52.102;8.084;2023-06-04T02:52:41;2.78;;;1.83;;
20531;SDS011;10424;52.102;8.084;2023-06-04T02:55:09;4.97;;;1.90;;
20531;SDS011;10424;52.102;8.084;2023-06-04T02:57:37;4.25;;;1.77;;
20531;SDS011;10424;52.102;8.084;2023-06-04T03:00:07;2.03;;;1.60;;
20531;SDS011;10424;52.102;8.084;2023-06-04T03:02:37;4.60;;;1.67;;
20531;SDS011;10424;52.102;8.084;2023-06-04T03:05:05;2.60;;;1.85;;
20531;SDS011;10424;52.102;8.084;2023-06-04T03:07:33;3.50;;;1.92;;
20531;SDS011;10424;52.102;8.084;2023-06-04T03:10:01;5.63;;;1.95;;
20531;SDS011;10424;52.102;8.084;2023-06-04T03:12:29;2.67;;;1.67;;
20531;SDS011;10424;52.102;8.084;2023-06-04T03:14:56;2.80;;;1.70;;
20531;SDS011;10424;52.102;8.084;2023-06-04T03:17:23;3.05;;;1.40;;
20531;SDS011;10424;52.102;8.084;2023-06-04T03:19:50;3.17;;;1.80;;
20531;SDS011;10424;52.102;8.084;2023-06-04T03:22:18;4.03;;;1.90;;
20531;SDS011;10424;52.102;8.084;2023-06-04T03:24:46;2.53;;;1.60;;
20531;SDS011;10424;52.102;8.084;2023-06-04T03:27:14;5.15;;;2.00;;
20531;SDS011;10424;52.102;8.084;2023-06-04T03:29:41;4.15;;;2.05;;
20531;SDS011;10424;52.102;8.084;2023-06-04T03:32:08;3.70;;;1.80;;
20531;SDS011;10424;52.102;8.084;2023-06-04T03:34:36;8.73;;;2.20;;
20531;SDS011;10424;52.102;8.084;2023-06-04T03:37:03;11.35;;;2.00;;
20531;SDS011;10424;52.102;8.084;2023-06-04T03:39:30;3.95;;;1.67;;
20531;SDS011;10424;52.102;8.084;2023-06-04T03:41:59;4.43;;;1.90;;
20531;SDS011;10424;52.102;8.084;2023-06-04T03:44:26;2.40;;;1.80;;
20531;SDS011;10424;52.102;8.084;2023-06-04T03:46:54;4.40;;;1.65;;
20531;SDS011;10424;52.102;8.084;2023-06-04T03:49:21;3.50;;;1.85;;
20531;SDS011;10424;52.102;8.084;2023-06-04T03:51:48;3.50;;;1.70;;
20531;SDS011;10424;52.102;8.084;2023-06-04T03:54:16;4.18;;;1.63;;
20531;SDS011;10424;52.102;8.084;2023-06-04T03:56:43;5.68;;;2.13;;
20531;SDS011;10424;52.102;8.084;2023-06-04T03:59:12;2.72;;;1.80;;
20531;SDS011;10424;52.102;8.084;2023-06-04T04:01:39;3.03;;;2.00;;
20531;SDS011;10424;52.102;8.084;2023-06-04T04:04:07;4.32;;;2.00;;
20531;SDS011;10424;52.102;8.084;2023-06-04T04:06:34;3.80;;;2.08;;
20531;SDS011;10424;52.102;8.084;2023-06-04T04:09:02;2.72;;;1.80;;
20531;SDS011;10424;52.102;8.084;2023-06-04T04:11:30;3.95;;;1.75;;
20531;SDS011;10424;52.102;8.084;2023-06-04T04:13:58;4.90;;;2.05;;
20531;SDS011;10424;52.102;8.084;2023-06-04T04:16:27;5.75;;;2.05;;
20531;SDS011;10424;52.102;8.084;2023-06-04T04:18:54;2.75;;;2.00;;
20531;SDS011;10424;52.102;8.084;2023-06-04T04:21:21;6.57;;;2.15;;
20531;SDS011;10424;52.102;8.084;2023-06-04T04:23:49;5.05;;;2.00;;
20531;SDS011;10424;52.102;8.084;2023-06-04T04:26:17;2.92;;;1.98;;
20531;SDS011;10424;52.102;8.084;2023-06-04T04:28:45;4.60;;;2.35;;
20531;SDS011;10424;52.102;8.084;2023-06-04T04:31:12;2.75;;;2.10;;
20531;SDS011;10424;52.102;8.084;2023-06-04T04:33:41;5.03;;;1.98;;
20531;SDS011;10424;52.102;8.084;2023-06-04T04:36:08;3.83;;;1.90;;
20531;SDS011;10424;52.102;8.084;2023-06-04T04:38:37;3.50;;;2.20;;
20531;SDS011;10424;52.102;8.084;2023-06-04T04:41:05;4.25;;;2.20;;
20531;SDS011;10424;52.102;8.084;2023-06-04T04:43:34;5.72;;;2.33;;
20531;SDS011;10424;52.102;8.084;2023-06-04T04:46:01;3.83;;;2.05;;
20531;SDS011;10424;52.102;8.084;2023-06-04T04:48:28;5.07;;;2.00;;
20531;SDS011;10424;52.102;8.084;2023-06-04T04:50:57;3.72;;;2.00;;
20531;SDS011;10424;52.102;8.084;2023-06-04T04:53:25;4.25;;;2.10;;
20531;SDS011;10424;52.102;8.084;2023-06-04T04:55:52;3.13;;;2.20;;
20531;SDS011;10424;52.102;8.084;2023-06-04T04:58:19;4.80;;;2.03;;
20531;SDS011;10424;52.102;8.084;2023-06-04T05:00:47;3.60;;;2.08;;
20531;SDS011;10424;52.102;8.084;2023-06-04T05:03:14;3.63;;;2.15;;
20531;SDS011;10424;52.102;8.084;2023-06-04T05:05:41;3.30;;;2.10;;
20531;SDS011;10424;52.102;8.084;2023-06-04T05:08:11;4.25;;;1.92;;
20531;SDS011;10424;52.102;8.084;2023-06-04T05:10:38;4.85;;;2.00;;
20531;SDS011;10424;52.102;8.084;2023-06-04T05:13:05;4.53;;;2.00;;
20531;SDS011;10424;52.102;8.084;2023-06-04T05:15:34;3.22;;;2.10;;
20531;SDS011;10424;52.102;8.084;2023-06-04T05:18:02;3.25;;;1.90;;
20531;SDS011;10424;52.102;8.084;2023-06-04T05:20:29;3.60;;;1.90;;
20531;SDS011;10424;52.102;8.084;2023-06-04T05:22:56;2.55;;;1.70;;
20531;SDS011;10424;52.102;8.084;2023-06-04T05:25:25;3.45;;;1.80;;
20531;SDS011;10424;52.102;8.084;2023-06-04T05:27:53;3.70;;;2.03;;
20531;SDS011;10424;52.102;8.084;2023-06-04T05:30:21;2.83;;;1.80;;
20531;SDS011;10424;52.102;8.084;2023-06-04T05:32:48;3.47;;;1.90;;
20531;SDS011;10424;52.102;8.084;2023-06-04T05:35:15;2.10;;;1.70;;
20531;SDS011;10424;52.102;8.084;2023-06-04T05:37:43;3.83;;;1.98;;
20531;SDS011;10424;52.102;8.084;2023-06-04T05:40:11;3.30;;;2.03;;
20531;SDS011;10424;52.102;8.084;2023-06-04T05:42:40;4.68;;;2.10;;
20531;SDS011;10424;52.102;8.084;2023-06-04T05:45:08;3.03;;;1.85;;
20531;SDS011;10424;52.102;8.084;2023-06-04T05:47:35;4.38;;;1.80;;
20531;SDS011;10424;52.102;8.084;2023-06-04T05:50:03;3.45;;;1.83;;
20531;SDS011;10424;52.102;8.084;2023-06-04T05:52:31;3.05;;;1.58;;
20531;SDS011;10424;52.102;8.084;2023-06-04T05:54:59;3.35;;;1.67;;
20531;SDS011;10424;52.102;8.084;2023-06-04T05:57:26;3.92;;;1.73;;
20531;SDS011;10424;52.102;8.084;2023-06-04T05:59:55;2.42;;;1.70;;
20531;SDS011;10424;52.102;8.084;2023-06-04T06:02:22;4.43;;;1.67;;
20531;SDS011;10424;52.102;8.084;2023-06-04T06:04:49;4.60;;;1.60;;
20531;SDS011;10424;52.102;8.084;2023-06-04T06:07:17;2.88;;;1.80;;
20531;SDS011;10424;52.102;8.084;2023-06-04T06:09:44;3.20;;;1.70;;
20531;SDS011;10424;52.102;8.084;2023-06-04T06:12:12;3.35;;;1.60;;
20531;SDS011;10424;52.102;8.084;2023-06-04T06:14:39;2.58;;;1.58;;
20531;SDS011;10424;52.102;8.084;2023-06-04T06:17:08;2.10;;;1.40;;
20531;SDS011;10424;52.102;8.084;2023-06-04T06:19:35;2.70;;;1.90;;
20531;SDS011;10424;52.102;8.084;2023-06-04T06:22:03;3.33;;;1.60;;
20531;SDS011;10424;52.102;8.084;2023-06-04T06:24:30;3.22;;;1.80;;
20531;SDS011;10424;52.102;8.084;2023-06-04T06:26:58;3.03;;;1.52;;
20531;SDS011;10424;52.102;8.084;2023-06-04T06:29:25;2.85;;;1.63;;
20531;SDS011;10424;52.102;8.084;2023-06-04T06:31:52;5.65;;;1.60;;
20531;SDS011;10424;52.102;8.084;2023-06-04T06:34:21;2.45;;;1.50;;
20531;SDS011;10424;52.102;8.084;2023-06-04T06:36:48;2.80;;;1.50;;
20531;SDS011;10424;52.102;8.084;2023-06-04T06:39:16;1.88;;;1.60;;
20531;SDS011;10424;52.102;8.084;2023-06-04T06:41:43;2.53;;;1.50;;
20531;SDS011;10424;52.102;8.084;2023-06-04T06:44:10;4.65;;;1.88;;
20531;SDS011;10424;52.102;8.084;2023-06-04T06:46:37;3.88;;;1.63;;
20531;SDS011;10424;52.102;8.084;2023-06-04T06:49:05;2.55;;;1.50;;
20531;SDS011;10424;52.102;8.084;2023-06-04T06:51:34;2.47;;;1.60;;
20531;SDS011;10424;52.102;8.084;2023-06-04T06:54:01;3.60;;;2.13;;
20531;SDS011;10424;52.102;8.084;2023-06-04T06:56:29;1.98;;;1.58;;
20531;SDS011;10424;52.102;8.084;2023-06-04T06:58:56;3.53;;;1.60;;
20531;SDS011;10424;52.102;8.084;2023-06-04T07:01:23;2.65;;;1.52;;
20531;SDS011;10424;52.102;8.084;2023-06-04T07:03:50;2.53;;;1.75;;
20531;SDS011;10424;52.102;8.084;2023-06-04T07:06:18;3.20;;;1.80;;
20531;SDS011;10424;52.102;8.084;2023-06-04T07:08:47;2.40;;;1.65;;
20531;SDS011;10424;52.102;8.084;2023-06-04T07:11:14;3.35;;;1.52;;
20531;SDS011;10424;52.102;8.084;2023-06-04T07:13:41;2.95;;;1.58;;
20531;SDS011;10424;52.102;8.084;2023-06-04T07:16:09;3.60;;;1.58;;
20531;SDS011;10424;52.102;8.084;2023-06-04T07:18:36;2.00;;;1.45;;
20531;SDS011;10424;52.102;8.084;2023-06-04T07:21:03;4.93;;;1.40;;
20531;SDS011;10424;52.102;8.084;2023-06-04T07:23:30;4.15;;;1.25;;
20531;SDS011;10424;52.102;8.084;2023-06-04T07:25:59;3.10;;;1.50;;
20531;SDS011;10424;52.102;8.084;2023-06-04T07:28:26;4.38;;;1.55;;
20531;SDS011;10424;52.102;8.084;2023-06-04T07:30:54;2.33;;;1.30;;
20531;SDS011;10424;52.102;8.084;2023-06-04T07:33:21;2.70;;;1.40;;
20531;SDS011;10424;52.102;8.084;2023-06-04T07:35:48;2.25;;;1.30;;
20531;SDS011;10424;52.102;8.084;2023-06-04T07:38:15;3.80;;;1.52;;
20531;SDS011;10424;52.102;8.084;2023-06-04T07:40:44;2.22;;;1.40;;
20531;SDS011;10424;52.102;8.084;2023-06-04T07:43:14;2.30;;;1.48;;
20531;SDS011;10424;52.102;8.084;2023-06-04T07:45:41;4.55;;;1.30;;
20531;SDS011;10424;52.102;8.084;2023-06-04T07:48:08;3.75;;;1.60;;
20531;SDS011;10424;52.102;8.084;2023-06-04T07:50:36;3.03;;;1.30;;
20531;SDS011;10424;52.102;8.084;2023-06-04T07:53:05;4.63;;;1.35;;
20531;SDS011;10424;52.102;8.084;2023-06-04T07:55:32;3.55;;;1.40;;
20531;SDS011;10424;52.102;8.084;2023-06-04T07:58:00;4.28;;;1.38;;
20531;SDS011;10424;52.102;8.084;2023-06-04T08:00:28;2.75;;;1.27;;
20531;SDS011;10424;52.102;8.084;2023-06-04T08:02:56;3.58;;;1.40;;
20531;SDS011;10424;52.102;8.084;2023-06-04T08:05:23;1.75;;;1.20;;
20531;SDS011;10424;52.102;8.084;2023-06-04T08:07:51;1.50;;;1.10;;
20531;SDS011;10424;52.102;8.084;2023-06-04T08:10:18;3.47;;;1.20;;
20531;SDS011;10424;52.102;8.084;2023-06-04T08:12:46;4.13;;;1.40;;
20531;SDS011;10424;52.102;8.084;2023-06-04T08:15:13;4.50;;;1.35;;
20531;SDS011;10424;52.102;8.084;2023-06-04T08:17:42;3.08;;;1.50;;
20531;SDS011;10424;52.102;8.084;2023-06-04T08:20:09;3.72;;;1.23;;
20531;SDS011;10424;52.102;8.084;2023-06-04T08:22:37;6.28;;;1.35;;
20531;SDS011;10424;52.102;8.084;2023-06-04T08:25:04;2.47;;;1.17;;
20531;SDS011;10424;52.102;8.084;2023-06-04T08:27:32;2.38;;;1.40;;
20531;SDS011;10424;52.102;8.084;2023-06-04T08:29:59;3.70;;;1.20;;
20531;SDS011;10424;52.102;8.084;2023-06-04T08:32:27;2.85;;;1.05;;
20531;SDS011;10424;52.102;8.084;2023-06-04T08:34:55;1.90;;;1.17;;
20531;SDS011;10424;52.102;8.084;2023-06-04T08:37:23;1.33;;;1.10;;
20531;SDS011;10424;52.102;8.084;2023-06-04T08:39:50;2.35;;;1.20;;
20531;SDS011;10424;52.102;8.084;2023-06-04T08:42:20;2.90;;;1.25;;
20531;SDS011;10424;52.102;8.084;2023-06-04T08:44:50;4.00;;;1.15;;
20531;SDS011;10424;52.102;8.084;2023-06-04T08:47:18;3.80;;;1.52;;
20531;SDS011;10424;52.102;8.084;2023-06-04T08:49:47;3.60;;;1.40;;
20531;SDS011;10424;52.102;8.084;2023-06-04T08:52:17;2.63;;;1.10;;
20531;SDS011;10424;52.102;8.084;2023-06-04T08:54:48;3.17;;;1.20;;
20531;SDS011;10424;52.102;8.084;2023-06-04T08:57:16;1.90;;;1.02;;
20531;SDS011;10424;52.102;8.084;2023-06-04T08:59:44;3.42;;;1.00;;
20531;SDS011;10424;52.102;8.084;2023-06-04T09:02:12;2.17;;;1.17;;
20531;SDS011;10424;52.102;8.084;2023-06-04T09:04:40;4.97;;;1.20;;
20531;SDS011;10424;52.102;8.084;2023-06-04T09:07:07;2.80;;;1.15;;
20531;SDS011;10424;52.102;8.084;2023-06-04T09:09:38;5.60;;;0.90;;
20531;SDS011;10424;52.102;8.084;2023-06-04T09:12:08;4.43;;;1.17;;
20531;SDS011;10424;52.102;8.084;2023-06-04T09:14:36;6.00;;;1.10;;
20531;SDS011;10424;52.102;8.084;2023-06-04T09:17:05;2.30;;;1.00;;
20531;SDS011;10424;52.102;8.084;2023-06-04T09:19:33;3.90;;;1.00;;
20531;SDS011;10424;52.102;8.084;2023-06-04T09:22:00;1.42;;;0.98;;
20531;SDS011;10424;52.102;8.084;2023-06-04T09:24:38;2.78;;;1.10;;
20531;SDS011;10424;52.102;8.084;2023-06-04T09:27:09;2.08;;;1.02;;
20531;SDS011;10424;52.102;8.084;2023-06-04T09:29:37;1.80;;;0.90;;
20531;SDS011;10424;52.102;8.084;2023-06-04T09:32:05;10.05;;;1.25;;
20531;SDS011;10424;52.102;8.084;2023-06-04T09:34:32;2.92;;;1.00;;
20531;SDS011;10424;52.102;8.084;2023-06-04T09:37:00;2.65;;;1.00;;
20531;SDS011;10424;52.102;8.084;2023-06-04T09:39:27;1.45;;;0.90;;
20531;SDS011;10424;52.102;8.084;2023-06-04T09:41:59;5.43;;;1.15;;
20531;SDS011;10424;52.102;8.084;2023-06-04T09:44:27;1.38;;;0.90;;
20531;SDS011;10424;52.102;8.084;2023-06-04T09:46:54;4.60;;;1.15;;
20531;SDS011;10424;52.102;8.084;2023-06-04T09:49:22;3.45;;;0.90;;
20531;SDS011;10424;52.102;8.084;2023-06-04T09:51:50;1.88;;;0.90;;
20531;SDS011;10424;52.102;8.084;2023-06-04T09:54:17;1.23;;;0.80;;
20531;SDS011;10424;52.102;8.084;2023-06-04T09:56:44;1.77;;;0.85;;
20531;SDS011;10424;52.102;8.084;2023-06-04T09:59:13;1.48;;;1.00;;
20531;SDS011;10424;52.102;8.084;2023-06-04T10:01:40;4.57;;;0.90;;
20531;SDS011;10424;52.102;8.084;2023-06-04T10:04:08;2.78;;;0.95;;
20531;SDS011;10424;52.102;8.084;2023-06-04T10:06:37;2.25;;;0.80;;
20531;SDS011;10424;52.102;8.084;2023-06-04T10:09:06;3.33;;;1.02;;
20531;SDS011;10424;52.102;8.084;2023-06-04T10:11:34;1.58;;;0.80;;
20531;SDS011;10424;52.102;8.084;2023-06-04T10:14:02;1.98;;;1.10;;
20531;SDS011;10424;52.102;8.084;2023-06-04T10:16:32;3.38;;;0.90;;
20531;SDS011;10424;52.102;8.084;2023-06-04T10:18:59;1.48;;;0.90;;
20531;SDS011;10424;52.102;8.084;2023-06-04T10:21:27;1.58;;;0.90;;
20531;SDS011;10424;52.102;8.084;2023-06-04T10:23:57;1.65;;;0.90;;
20531;SDS011;10424;52.102;8.084;2023-06-04T10:26:25;2.63;;;0.98;;
20531;SDS011;10424;52.102;8.084;2023-06-04T10:28:52;2.92;;;0.90;;
20531;SDS011;10424;52.102;8.084;2023-06-04T10:31:21;1.00;;;0.90;;
20531;SDS011;10424;52.102;8.084;2023-06-04T10:33:54;1.00;;;0.70;;
20531;SDS011;10424;52.102;8.084;2023-06-04T10:36:22;1.20;;;0.88;;
20531;SDS011;10424;52.102;8.084;2023-06-04T10:38:51;1.55;;;0.98;;
20531;SDS011;10424;52.102;8.084;2023-06-04T10:41:19;1.55;;;0.80;;
20531;SDS011;10424;52.102;8.084;2023-06-04T10:43:48;1.42;;;0.90;;
20531;SDS011;10424;52.102;8.084;2023-06-04T10:46:16;1.35;;;0.90;;
20531;SDS011;10424;52.102;8.084;2023-06-04T10:48:47;2.15;;;0.90;;
20531;SDS011;10424;52.102;8.084;2023-06-04T10:51:28;4.38;;;1.00;;
20531;SDS011;10424;52.102;8.084;2023-06-04T10:53:55;1.33;;;1.00;;
20531;SDS011;10424;52.102;8.084;2023-06-04T10:56:26;1.95;;;0.80;;
20531;SDS011;10424;52.102;8.084;2023-06-04T10:58:53;1.67;;;1.00;;
20531;SDS011;10424;52.102;8.084;2023-06-04T11:01:24;3.17;;;1.10;;
20531;SDS011;10424;52.102;8.084;2023-06-04T11:03:53;2.70;;;0.93;;
20531;SDS011;10424;52.102;8.084;2023-06-04T11:06:22;1.83;;;1.00;;
20531;SDS011;10424;52.102;8.084;2023-06-04T11:09:00;1.23;;;0.80;;
20531;SDS011;10424;52.102;8.084;2023-06-04T11:11:28;2.00;;;1.10;;
20531;SDS011;10424;52.102;8.084;2023-06-04T11:13:56;2.67;;;0.95;;
20531;SDS011;10424;52.102;8.084;2023-06-04T11:16:33;1.75;;;0.93;;
20531;SDS011;10424;52.102;8.084;2023-06-04T11:19:00;2.05;;;0.88;;
20531;SDS011;10424;52.102;8.084;2023-06-04T11:21:29;2.58;;;1.00;;
20531;SDS011;10424;52.102;8.084;2023-06-04T11:23:57;2.88;;;0.85;;
20531;SDS011;10424;52.102;8.084;2023-06-04T11:26:29;2.50;;;0.80;;
20531;SDS011;10424;52.102;8.084;2023-06-04T11:28:57;1.30;;;0.88;;
20531;SDS011;10424;52.102;8.084;2023-06-04T11:31:24;1.10;;;0.82;;
20531;SDS011;10424;52.102;8.084;2023-06-04T11:33:52;2.22;;;0.80;;
20531;SDS011;10424;52.102;8.084;2023-06-04T11:36:23;2.55;;;0.70;;
20531;SDS011;10424;52.102;8.084;2023-06-04T11:38:56;2.67;;;1.00;;
20531;SDS011;10424;52.102;8.084;2023-06-04T11:41:24;2.00;;;1.00;;
20531;SDS011;10424;52.102;8.084;2023-06-04T11:43:51;1.35;;;0.98;;
20531;SDS011;10424;52.102;8.084;2023-06-04T11:46:19;1.27;;;0.95;;
20531;SDS011;10424;52.102;8.084;2023-06-04T11:48:46;1.52;;;1.10;;
20531;SDS011;10424;52.102;8.084;2023-06-04T11:51:13;1.33;;;1.00;;
20531;SDS011;10424;52.102;8.084;2023-06-04T11:53:41;1.73;;;1.00;;
20531;SDS011;10424;52.102;8.084;2023-06-04T11:56:09;1.33;;;0.90;;
20531;SDS011;10424;52.102;8.084;2023-06-04T11:58:37;3.20;;;1.05;;
20531;SDS011;10424;52.102;8.084;2023-06-04T12:01:05;2.30;;;1.05;;
20531;SDS011;10424;52.102;8.084;2023-06-04T12:03:33;1.88;;;0.98;;
20531;SDS011;10424;52.102;8.084;2023-06-04T12:06:08;1.75;;;1.00;;
20531;SDS011;10424;52.102;8.084;2023-06-04T12:08:45;1.77;;;1.10;;
20531;SDS011;10424;52.102;8.084;2023-06-04T12:11:27;1.20;;;1.00;;
20531;SDS011;10424;52.102;8.084;2023-06-04T12:13:56;3.05;;;1.00;;
20531;SDS011;10424;52.102;8.084;2023-06-04T12:16:24;5.22;;;0.85;;
20531;SDS011;10424;52.102;8.084;2023-06-04T12:18:51;4.18;;;0.95;;
20531;SDS011;10424;52.102;8.084;2023-06-04T12:21:22;1.20;;;0.90;;
20531;SDS011;10424;52.102;8.084;2023-06-04T12:23:52;2.70;;;1.00;;
20531;SDS011;10424;52.102;8.084;2023-06-04T12:26:20;1.08;;;0.88;;
20531;SDS011;10424;52.102;8.084;2023-06-04T12:29:01;16.60;;;1.50;;
20531;SDS011;10424;52.102;8.084;2023-06-04T12:31:29;1.95;;;1.00;;
20531;SDS011;10424;52.102;8.084;2023-06-04T12:33:58;1.70;;;1.10;;
20531;SDS011;10424;52.102;8.084;2023-06-04T12:36:26;1.35;;;1.08;;
20531;SDS011;10424;52.102;8.084;2023-06-04T12:38:53;1.20;;;0.90;;
20531;SDS011;10424;52.102;8.084;2023-06-04T12:41:21;1.00;;;0.90;;
20531;SDS011;10424;52.102;8.084;2023-06-04T12:43:48;1.77;;;1.00;;
20531;SDS011;10424;52.102;8.084;2023-06-04T12:46:17;1.77;;;1.10;;
20531;SDS011;10424;52.102;8.084;2023-06-04T12:48:44;2.38;;;0.90;;
20531;SDS011;10424;52.102;8.084;2023-06-04T12:51:11;3.22;;;1.15;;
20531;SDS011;10424;52.102;8.084;2023-06-04T12:53:38;2.53;;;1.00;;
20531;SDS011;10424;52.102;8.084;2023-06-04T12:56:06;2.53;;;1.10;;
20531;SDS011;10424;52.102;8.084;2023-06-04T12:58:33;1.73;;;0.98;;
20531;SDS011;10424;52.102;8.084;2023-06-04T13:01:00;1.27;;;0.93;;
20531;SDS011;10424;52.102;8.084;2023-06-04T13:03:29;1.10;;;0.98;;
20531;SDS011;10424;52.102;8.084;2023-06-04T13:05:57;1.77;;;1.00;;
20531;SDS011;10424;52.102;8.084;2023-06-04T13:08:24;1.27;;;0.90;;
20531;SDS011;10424;52.102;8.084;2023-06-04T13:10:51;1.50;;;1.05;;
20531;SDS011;10424;52.102;8.084;2023-06-04T13:13:19;1.83;;;0.93;;
20531;SDS011;10424;52.102;8.084;2023-06-04T13:15:47;4.60;;;1.52;;
20531;SDS011;10424;52.102;8.084;2023-06-04T13:18:14;2.00;;;1.10;;
20531;SDS011;10424;52.102;8.084;2023-06-04T13:20:43;1.98;;;1.15;;
20531;SDS011;10424;52.102;8.084;2023-06-04T13:23:10;2.75;;;1.20;;
20531;SDS011;10424;52.102;8.084;2023-06-04T13:25:38;6.82;;;1.10;;
20531;SDS011;10424;52.102;8.084;2023-06-04T13:28:05;1.45;;;1.00;;
20531;SDS011;10424;52.102;8.084;2023-06-04T13:30:33;2.17;;;1.20;;
20531;SDS011;10424;52.102;8.084;2023-06-04T13:33:01;1.23;;;1.00;;
20531;SDS011;10424;52.102;8.084;2023-06-04T13:35:29;3.47;;;1.10;;
20531;SDS011;10424;52.102;8.084;2023-06-04T13:37:57;3.40;;;1.13;;
20531;SDS011;10424;52.102;8.084;2023-06-04T13:40:25;3.83;;;1.10;;
20531;SDS011;10424;52.102;8.084;2023-06-04T13:42:52;2.63;;;1.30;;
20531;SDS011;10424;52.102;8.084;2023-06-04T13:45:19;3.60;;;1.10;;
20531;SDS011;10424;52.102;8.084;2023-06-04T13:47:47;5.45;;;1.25;;
20531;SDS011;10424;52.102;8.084;2023-06-04T13:50:14;2.87;;;1.13;;
20531;SDS011;10424;52.102;8.084;2023-06-04T13:52:42;3.17;;;1.08;;
20531;SDS011;10424;52.102;8.084;2023-06-04T13:55:11;1.98;;;0.93;;
20531;SDS011;10424;52.102;8.084;2023-06-04T13:57:39;1.80;;;1.13;;
20531;SDS011;10424;52.102;8.084;2023-06-04T14:00:06;2.60;;;1.20;;
20531;SDS011;10424;52.102;8.084;2023-06-04T14:02:36;1.88;;;1.02;;
20531;SDS011;10424;52.102;8.084;2023-06-04T14:05:05;1.63;;;1.10;;
20531;SDS011;10424;52.102;8.084;2023-06-04T14:07:32;1.60;;;1.10;;
20531;SDS011;10424;52.102;8.084;2023-06-04T14:10:00;4.70;;;1.20;;
20531;SDS011;10424;52.102;8.084;2023-06-04T14:12:28;1.17;;;1.00;;
20531;SDS011;10424;52.102;8.084;2023-06-04T14:14:56;7.43;;;1.20;;
20531;SDS011;10424;52.102;8.084;2023-06-04T14:17:23;2.17;;;1.08;;
20531;SDS011;10424;52.102;8.084;2023-06-04T14:19:50;2.00;;;1.30;;
20531;SDS011;10424;52.102;8.084;2023-06-04T14:22:17;3.65;;;1.60;;
20531;SDS011;10424;52.102;8.084;2023-06-04T14:24:45;2.97;;;1.40;;
20531;SDS011;10424;52.102;8.084;2023-06-04T14:27:12;3.65;;;1.20;;
20531;SDS011;10424;52.102;8.084;2023-06-04T14:29:41;3.42;;;1.17;;
20531;SDS011;10424;52.102;8.084;2023-06-04T14:32:08;4.35;;;1.17;;
20531;SDS011;10424;52.102;8.084;2023-06-04T14:34:36;1.33;;;0.90;;
20531;SDS011;10424;52.102;8.084;2023-06-04T14:37:03;2.58;;;1.10;;
20531;SDS011;10424;52.102;8.084;2023-06-04T14:39:30;2.25;;;1.00;;
20531;SDS011;10424;52.102;8.084;2023-06-04T14:41:58;1.35;;;1.10;;
20531;SDS011;10424;52.102;8.084;2023-06-04T14:44:25;1.30;;;1.10;;
20531;SDS011;10424;52.102;8.084;2023-06-04T14:46:54;2.28;;;1.60;;
20531;SDS011;10424;52.102;8.084;2023-06-04T14:49:21;3.60;;;1.27;;
20531;SDS011;10424;52.102;8.084;2023-06-04T14:51:48;2.67;;;1.15;;
20531;SDS011;10424;52.102;8.084;2023-06-04T14:54:16;1.75;;;1.10;;